Time,TemperatureF,DewpointF,PressureIn,WindDirection,WindDirectionDegrees,WindSpeedMPH,WindSpeedGustMPH,Humidity,HourlyPrecipIn,Conditions,Clouds,dailyrainin,SoftwareType,DateUTC
2013-02-22 00:00:00,38.8,34.3,30.22,NE,54,0.0,0.0,84,0.00,,,0.00,meteohub,2013-02-22 05:00:00,
2013-02-22 00:05:00,39.4,35.2,30.22,NE,54,0.0,0.0,85,0.00,,,0.00,meteohub,2013-02-22 05:05:00,
2013-02-22 00:10:00,39.6,35.8,30.23,NE,54,0.0,0.0,86,0.00,,,0.00,meteohub,2013-02-22 05:10:00,
2013-02-22 00:15:00,39.7,36.1,30.23,NE,54,0.0,0.0,87,0.00,,,0.00,meteohub,2013-02-22 05:15:00,
2013-02-22 00:20:00,39.7,36.1,30.23,NE,54,0.0,0.0,87,0.00,,,0.00,meteohub,2013-02-22 05:20:00,
2013-02-22 00:25:00,39.7,36.1,30.23,NE,54,0.0,0.0,87,0.00,,,0.00,meteohub,2013-02-22 05:25:00,
2013-02-22 00:30:00,39.7,36.0,30.22,NE,54,0.0,0.0,86,0.00,,,0.00,meteohub,2013-02-22 05:30:00,
2013-02-22 00:35:00,39.9,36.1,30.22,NE,54,0.0,0.0,86,0.00,,,0.00,meteohub,2013-02-22 05:35:00,
2013-02-22 00:40:00,40.3,36.5,30.22,NE,54,0.0,0.0,86,0.00,,,0.00,meteohub,2013-02-22 05:40:00,
2013-02-22 00:45:00,40.5,36.7,30.21,NE,54,0.0,0.0,86,0.00,,,0.00,meteohub,2013-02-22 05:45:00,
2013-02-22 00:50:00,41.4,37.6,30.21,East,80,0.0,0.0,86,0.00,,,0.00,meteohub,2013-02-22 05:50:00,
2013-02-22 00:55:00,43.0,37.9,30.20,East,97,2.0,0.0,82,0.00,,,0.00,meteohub,2013-02-22 05:55:00,
2013-02-22 01:00:00,44.4,37.9,30.20,ENE,64,0.0,10.0,78,0.00,,,0.00,meteohub,2013-02-22 06:00:00,
2013-02-22 01:05:00,45.0,37.9,30.21,East,80,0.0,10.0,76,0.00,,,0.00,meteohub,2013-02-22 06:05:00,
2013-02-22 01:10:00,45.3,37.9,30.21,ESE,103,5.0,10.0,75,0.00,,,0.00,meteohub,2013-02-22 06:10:00,
2013-02-22 01:15:00,45.7,38.3,30.20,ENE,78,2.0,10.0,75,0.00,,,0.00,meteohub,2013-02-22 06:15:00,
2013-02-22 01:20:00,45.5,38.1,30.21,East,80,0.0,11.0,75,0.00,,,0.00,meteohub,2013-02-22 06:20:00,
2013-02-22 01:25:00,45.1,37.9,30.21,ENE,73,0.0,11.0,76,0.00,,,0.00,meteohub,2013-02-22 06:25:00,
2013-02-22 01:30:00,44.8,37.9,30.21,ENE,62,2.0,9.0,77,0.00,,,0.00,meteohub,2013-02-22 06:30:00,
2013-02-22 01:35:00,44.4,37.9,30.21,ESE,105,0.0,9.0,78,0.00,,,0.00,meteohub,2013-02-22 06:35:00,
2013-02-22 01:40:00,44.4,37.9,30.22,ESE,105,0.0,8.0,78,0.00,,,0.00,meteohub,2013-02-22 06:40:00,
2013-02-22 01:45:00,44.2,38.1,30.23,ESE,105,0.0,8.0,79,0.00,,,0.00,meteohub,2013-02-22 06:45:00,
2013-02-22 01:50:00,43.7,38.3,30.24,ESE,105,0.0,0.0,81,0.00,,,0.00,meteohub,2013-02-22 06:50:00,
2013-02-22 01:55:00,43.3,37.9,30.25,ESE,105,0.0,0.0,81,0.00,,,0.00,meteohub,2013-02-22 06:55:00,
2013-02-22 02:00:00,43.2,37.8,30.24,ESE,105,0.0,0.0,81,0.00,,,0.00,meteohub,2013-02-22 07:00:00,
2013-02-22 02:05:00,42.8,37.8,30.25,ESE,105,0.0,0.0,82,0.00,,,0.00,meteohub,2013-02-22 07:05:00,
2013-02-22 02:10:00,42.3,37.2,30.25,ESE,105,0.0,0.0,82,0.00,,,0.00,meteohub,2013-02-22 07:10:00,
2013-02-22 02:15:00,41.9,37.0,30.25,ESE,105,0.0,0.0,83,0.00,,,0.00,meteohub,2013-02-22 07:15:00,
2013-02-22 02:20:00,41.5,36.5,30.25,ESE,105,0.0,0.0,82,0.00,,,0.00,meteohub,2013-02-22 07:20:00,
2013-02-22 02:25:00,41.4,36.5,30.25,NE,49,0.0,0.0,83,0.00,,,0.00,meteohub,2013-02-22 07:25:00,
2013-02-22 02:30:00,41.2,36.1,30.25,ENE,76,0.0,0.0,82,0.00,,,0.00,meteohub,2013-02-22 07:30:00,
2013-02-22 02:35:00,40.6,35.2,30.24,ENE,62,0.0,0.0,81,0.00,,,0.00,meteohub,2013-02-22 07:35:00,
2013-02-22 02:40:00,40.5,34.7,30.24,ENE,61,0.0,0.0,80,0.00,,,0.00,meteohub,2013-02-22 07:40:00,
2013-02-22 02:45:00,40.5,34.7,30.24,ENE,78,0.0,0.0,80,0.00,,,0.00,meteohub,2013-02-22 07:45:00,
2013-02-22 02:50:00,40.3,34.3,30.24,ENE,67,0.0,0.0,79,0.00,,,0.00,meteohub,2013-02-22 07:50:00,
2013-02-22 02:55:00,40.3,34.0,30.25,ENE,64,0.0,0.0,78,0.00,,,0.00,meteohub,2013-02-22 07:55:00,
2013-02-22 03:00:00,40.3,33.6,30.25,ENE,77,0.0,0.0,77,0.00,,,0.00,meteohub,2013-02-22 08:00:00,
2013-02-22 03:05:00,40.3,33.6,30.25,ENE,60,0.0,0.0,77,0.00,,,0.00,meteohub,2013-02-22 08:05:00,
2013-02-22 03:10:00,40.1,33.8,30.26,ENE,60,0.0,0.0,78,0.00,,,0.00,meteohub,2013-02-22 08:10:00,
2013-02-22 03:15:00,39.9,34.0,30.26,ENE,60,0.0,0.0,79,0.00,,,0.00,meteohub,2013-02-22 08:15:00,
2013-02-22 03:20:00,40.1,33.8,30.26,ENE,60,0.0,0.0,78,0.00,,,0.00,meteohub,2013-02-22 08:20:00,
2013-02-22 03:25:00,40.3,34.0,30.26,East,79,0.0,0.0,78,0.00,,,0.00,meteohub,2013-02-22 08:25:00,
2013-02-22 03:30:00,40.5,34.2,30.26,East,79,0.0,0.0,78,0.00,,,0.00,meteohub,2013-02-22 08:30:00,
2013-02-22 03:35:00,40.5,34.2,30.25,ENE,74,0.0,0.0,78,0.00,,,0.00,meteohub,2013-02-22 08:35:00,
2013-02-22 03:40:00,40.5,34.2,30.25,ENE,70,0.0,0.0,78,0.00,,,0.00,meteohub,2013-02-22 08:40:00,
2013-02-22 03:45:00,40.5,33.8,30.26,East,91,0.0,0.0,77,0.00,,,0.00,meteohub,2013-02-22 08:45:00,
2013-02-22 03:50:00,40.5,34.2,30.26,ENE,78,0.0,0.0,78,0.00,,,0.00,meteohub,2013-02-22 08:50:00,
2013-02-22 03:55:00,40.5,33.8,30.26,East,93,0.0,0.0,77,0.00,,,0.00,meteohub,2013-02-22 08:55:00,
2013-02-22 04:00:00,40.5,33.4,30.26,NE,36,0.0,0.0,76,0.00,,,0.00,meteohub,2013-02-22 09:00:00,
2013-02-22 04:05:00,40.5,34.2,30.26,NE,36,0.0,0.0,78,0.00,,,0.00,meteohub,2013-02-22 09:05:00,
2013-02-22 04:10:00,40.5,33.8,30.27,NE,36,0.0,0.0,77,0.00,,,0.00,meteohub,2013-02-22 09:10:00,
2013-02-22 04:15:00,40.3,33.6,30.28,NE,36,0.0,0.0,77,0.00,,,0.00,meteohub,2013-02-22 09:15:00,
2013-02-22 04:20:00,40.3,33.6,30.28,NE,36,0.0,0.0,77,0.00,,,0.00,meteohub,2013-02-22 09:20:00,
2013-02-22 04:25:00,40.3,33.3,30.28,ENE,64,0.0,0.0,76,0.00,,,0.00,meteohub,2013-02-22 09:25:00,
2013-02-22 04:30:00,40.3,33.6,30.28,ENE,64,0.0,0.0,77,0.00,,,0.00,meteohub,2013-02-22 09:30:00,
2013-02-22 04:35:00,40.1,33.4,30.28,ENE,64,0.0,0.0,77,0.00,,,0.00,meteohub,2013-02-22 09:35:00,
2013-02-22 04:40:00,39.9,32.9,30.28,ENE,64,0.0,0.0,76,0.00,,,0.00,meteohub,2013-02-22 09:40:00,
2013-02-22 04:45:00,39.9,33.3,30.28,ENE,64,0.0,0.0,77,0.00,,,0.00,meteohub,2013-02-22 09:45:00,
2013-02-22 04:50:00,39.7,33.1,30.28,ENE,60,0.0,0.0,77,0.00,,,0.00,meteohub,2013-02-22 09:50:00,
2013-02-22 04:55:00,39.7,32.5,30.27,ENE,65,0.0,0.0,75,0.00,,,0.00,meteohub,2013-02-22 09:55:00,
2013-02-22 05:00:00,39.7,32.2,30.27,ESE,104,1.0,0.0,74,0.00,,,0.00,meteohub,2013-02-22 10:00:00,
2013-02-22 05:05:00,39.7,31.8,30.28,East,88,0.0,0.0,73,0.00,,,0.00,meteohub,2013-02-22 10:05:00,
2013-02-22 05:10:00,39.7,31.8,30.28,East,84,0.0,0.0,73,0.00,,,0.00,meteohub,2013-02-22 10:10:00,
2013-02-22 05:15:00,39.7,31.5,30.27,East,84,0.0,4.0,72,0.00,,,0.00,meteohub,2013-02-22 10:15:00,
2013-02-22 05:20:00,39.7,31.1,30.28,East,87,0.0,4.0,71,0.00,,,0.00,meteohub,2013-02-22 10:20:00,
2013-02-22 05:25:00,39.6,30.9,30.28,East,79,0.0,4.0,71,0.00,,,0.00,meteohub,2013-02-22 10:25:00,
2013-02-22 05:30:00,39.6,30.9,30.27,ENE,67,0.0,4.0,71,0.00,,,0.00,meteohub,2013-02-22 10:30:00,
2013-02-22 05:35:00,39.6,30.2,30.28,East,94,2.0,4.0,69,0.00,,,0.00,meteohub,2013-02-22 10:35:00,
2013-02-22 05:40:00,39.6,30.2,30.29,NE,53,0.0,4.0,69,0.00,,,0.00,meteohub,2013-02-22 10:40:00,
2013-02-22 05:45:00,39.6,30.2,30.29,East,87,0.0,4.0,69,0.00,,,0.00,meteohub,2013-02-22 10:45:00,
2013-02-22 05:50:00,39.6,30.2,30.29,East,87,0.0,4.0,69,0.00,,,0.00,meteohub,2013-02-22 10:50:00,
2013-02-22 05:55:00,39.6,30.2,30.30,East,87,0.0,6.0,69,0.00,,,0.00,meteohub,2013-02-22 10:55:00,
2013-02-22 06:00:00,39.4,30.0,30.30,East,87,0.0,6.0,69,0.00,,,0.00,meteohub,2013-02-22 11:00:00,
2013-02-22 06:05:00,39.4,30.0,30.30,East,87,0.0,6.0,69,0.00,,,0.00,meteohub,2013-02-22 11:05:00,
2013-02-22 06:10:00,39.4,30.0,30.31,East,87,0.0,6.0,69,0.00,,,0.00,meteohub,2013-02-22 11:10:00,
2013-02-22 06:15:00,39.4,30.0,30.30,ENE,59,0.0,0.0,69,0.00,,,0.00,meteohub,2013-02-22 11:15:00,
2013-02-22 06:20:00,39.2,30.2,30.30,ENE,59,0.0,0.0,70,0.00,,,0.00,meteohub,2013-02-22 11:20:00,
2013-02-22 06:25:00,39.0,30.0,30.30,ENE,59,0.0,0.0,70,0.00,,,0.00,meteohub,2013-02-22 11:25:00,
2013-02-22 06:30:00,39.0,30.4,30.29,ENE,59,0.0,0.0,71,0.00,,,0.00,meteohub,2013-02-22 11:30:00,
2013-02-22 06:35:00,38.8,30.2,30.29,ENE,76,2.0,0.0,71,0.00,,,0.00,meteohub,2013-02-22 11:35:00,
2013-02-22 06:40:00,38.8,29.8,30.27,East,82,3.0,0.0,70,0.00,,,0.00,meteohub,2013-02-22 11:40:00,
2013-02-22 06:45:00,39.0,29.7,30.28,NE,53,3.0,5.0,69,0.00,,,0.00,meteohub,2013-02-22 11:45:00,
2013-02-22 06:50:00,39.4,29.7,30.27,ENE,78,2.0,5.0,68,0.00,,,0.00,meteohub,2013-02-22 11:50:00,
2013-02-22 06:55:00,39.6,29.1,30.27,ESE,103,6.0,6.0,66,0.00,,,0.00,meteohub,2013-02-22 11:55:00,
2013-02-22 07:00:00,39.7,29.3,30.27,ENE,71,2.0,5.0,66,0.00,,,0.00,meteohub,2013-02-22 12:00:00,
2013-02-22 07:05:00,39.7,28.9,30.27,ENE,57,2.0,5.0,65,0.00,,,0.00,meteohub,2013-02-22 12:05:00,
2013-02-22 07:10:00,39.9,29.5,30.28,East,80,0.0,5.0,66,0.00,,,0.00,meteohub,2013-02-22 12:10:00,
2013-02-22 07:15:00,39.9,29.8,30.28,East,84,0.0,5.0,67,0.00,,,0.00,meteohub,2013-02-22 12:15:00,
2013-02-22 07:20:00,40.1,30.0,30.28,ENE,78,4.0,8.0,67,0.00,,,0.00,meteohub,2013-02-22 12:20:00,
2013-02-22 07:25:00,40.3,30.2,30.26,East,86,4.0,8.0,67,0.00,,,0.00,meteohub,2013-02-22 12:25:00,
2013-02-22 07:30:00,40.5,30.0,30.26,East,93,7.0,8.0,66,0.00,,,0.00,meteohub,2013-02-22 12:30:00,
2013-02-22 07:35:00,40.8,30.4,30.27,ENE,66,4.0,8.0,66,0.00,,,0.00,meteohub,2013-02-22 12:35:00,
2013-02-22 07:40:00,41.0,30.6,30.28,East,99,2.0,8.0,66,0.00,,,0.00,meteohub,2013-02-22 12:40:00,
2013-02-22 07:45:00,41.2,31.1,30.26,NE,51,2.0,11.0,67,0.00,,,0.00,meteohub,2013-02-22 12:45:00,
2013-02-22 07:50:00,41.4,31.6,30.25,East,86,4.0,11.0,68,0.00,,,0.00,meteohub,2013-02-22 12:50:00,
2013-02-22 07:56:00,41.5,32.2,30.26,NE,45,0.0,11.0,69,0.00,,,0.00,meteohub,2013-02-22 12:56:00,
2013-02-22 08:01:00,41.7,32.7,30.27,ENE,65,0.0,12.0,70,0.00,,,0.00,meteohub,2013-02-22 13:01:00,
2013-02-22 08:06:00,42.1,33.4,30.27,East,88,4.0,12.0,71,0.00,,,0.00,meteohub,2013-02-22 13:06:00,
2013-02-22 08:11:00,42.3,33.3,30.27,ENE,59,4.0,12.0,70,0.00,,,0.00,meteohub,2013-02-22 13:11:00,
2013-02-22 08:16:00,42.4,33.4,30.27,ENE,74,3.0,12.0,70,0.00,,,0.00,meteohub,2013-02-22 13:16:00,
2013-02-22 08:21:00,42.6,33.4,30.27,ESE,108,4.0,12.0,70,0.00,,,0.00,meteohub,2013-02-22 13:21:00,
2013-02-22 08:26:00,42.8,33.3,30.27,ESE,117,6.0,12.0,69,0.00,,,0.00,meteohub,2013-02-22 13:26:00,
2013-02-22 08:31:00,43.0,33.8,30.27,ESE,105,6.0,11.0,70,0.00,,,0.00,meteohub,2013-02-22 13:31:00,
2013-02-22 08:36:00,43.0,34.2,30.26,East,84,3.0,11.0,71,0.00,,,0.00,meteohub,2013-02-22 13:36:00,
2013-02-22 08:41:00,43.2,34.7,30.27,East,85,0.0,11.0,72,0.00,,,0.00,meteohub,2013-02-22 13:41:00,
2013-02-22 08:46:00,43.5,35.4,30.27,ENE,61,6.0,11.0,73,0.00,,,0.00,meteohub,2013-02-22 13:46:00,
2013-02-22 08:51:00,43.7,35.2,30.27,SE,127,5.0,7.0,72,0.00,,,0.00,meteohub,2013-02-22 13:51:00,
2013-02-22 08:56:00,43.9,35.8,30.28,ENE,76,2.0,7.0,73,0.00,,,0.00,meteohub,2013-02-22 13:56:00,
2013-02-22 09:01:00,44.1,36.0,30.27,ENE,75,7.0,7.0,73,0.00,,,0.00,meteohub,2013-02-22 14:01:00,
2013-02-22 09:06:00,44.1,36.0,30.26,ENE,65,8.0,8.0,73,0.00,,,0.00,meteohub,2013-02-22 14:06:00,
2013-02-22 09:11:00,44.1,36.7,30.26,East,88,4.0,11.0,75,0.00,,,0.00,meteohub,2013-02-22 14:11:00,
2013-02-22 09:16:00,44.2,37.2,30.26,East,98,4.0,11.0,76,0.00,,,0.00,meteohub,2013-02-22 14:16:00,
2013-02-22 09:21:00,44.2,37.6,30.27,NE,45,5.0,11.0,77,0.00,,,0.00,meteohub,2013-02-22 14:21:00,
2013-02-22 09:26:00,44.4,37.9,30.26,ENE,77,2.0,11.0,78,0.00,,,0.00,meteohub,2013-02-22 14:26:00,
2013-02-22 09:31:00,44.4,37.9,30.27,ENE,74,6.0,9.0,78,0.00,,,0.00,meteohub,2013-02-22 14:31:00,
2013-02-22 09:36:00,44.6,37.8,30.27,East,99,8.0,9.0,77,0.00,,,0.00,meteohub,2013-02-22 14:36:00,
2013-02-22 09:41:00,45.0,38.1,30.27,East,92,7.0,9.0,77,0.00,,,0.00,meteohub,2013-02-22 14:41:00,
2013-02-22 09:46:00,45.0,37.9,30.26,East,81,11.0,11.0,76,0.00,,,0.00,meteohub,2013-02-22 14:46:00,
2013-02-22 09:51:00,45.1,37.9,30.26,ENE,69,6.0,13.0,76,0.00,,,0.00,meteohub,2013-02-22 14:51:00,
2013-02-22 09:56:00,45.1,37.9,30.26,East,98,9.0,13.0,76,0.00,,,0.00,meteohub,2013-02-22 14:56:00,
2013-02-22 10:01:00,45.3,38.1,30.26,East,82,6.0,14.0,76,0.00,,,0.00,meteohub,2013-02-22 15:01:00,
2013-02-22 10:06:00,45.3,38.1,30.27,East,100,8.0,14.0,76,0.00,,,0.00,meteohub,2013-02-22 15:06:00,
2013-02-22 10:11:00,45.7,38.3,30.26,ENE,65,10.0,14.0,75,0.00,,,0.00,meteohub,2013-02-22 15:11:00,
2013-02-22 10:16:00,45.9,38.7,30.26,East,89,6.0,14.0,76,0.00,,,0.00,meteohub,2013-02-22 15:16:00,
2013-02-22 10:21:00,45.9,38.3,30.27,NE,45,6.0,14.0,75,0.00,,,0.00,meteohub,2013-02-22 15:21:00,
2013-02-22 10:26:00,45.9,38.3,30.26,East,101,13.0,14.0,75,0.00,,,0.00,meteohub,2013-02-22 15:26:00,
2013-02-22 10:31:00,45.5,38.3,30.26,East,82,4.0,18.0,76,0.00,,,0.00,meteohub,2013-02-22 15:31:00,
2013-02-22 10:36:00,45.5,38.7,30.25,East,84,6.0,18.0,77,0.00,,,0.00,meteohub,2013-02-22 15:36:00,
2013-02-22 10:41:00,45.9,39.0,30.26,ESE,107,9.0,18.0,77,0.00,,,0.00,meteohub,2013-02-22 15:41:00,
2013-02-22 10:46:00,46.0,38.8,30.26,NE,52,6.0,18.0,76,0.00,,,0.00,meteohub,2013-02-22 15:46:00,
2013-02-22 10:51:00,46.2,39.0,30.26,ESE,102,8.0,15.0,76,0.00,,,0.00,meteohub,2013-02-22 15:51:00,
2013-02-22 10:56:00,46.4,38.8,30.25,East,88,7.0,15.0,75,0.00,,,0.00,meteohub,2013-02-22 15:56:00,
2013-02-22 11:01:00,46.6,39.4,30.25,NE,56,5.0,14.0,76,0.00,,,0.00,meteohub,2013-02-22 16:01:00,
2013-02-22 11:06:00,46.6,39.4,30.25,East,82,4.0,14.0,76,0.00,,,0.00,meteohub,2013-02-22 16:06:00,
2013-02-22 11:11:00,46.6,39.4,30.25,East,98,7.0,14.0,76,0.00,,,0.00,meteohub,2013-02-22 16:11:00,
2013-02-22 11:16:00,46.8,39.6,30.25,East,98,11.0,14.0,76,0.00,,,0.00,meteohub,2013-02-22 16:16:00,
2013-02-22 11:21:00,46.6,39.7,30.25,NE,51,4.0,18.0,77,0.00,,,0.00,meteohub,2013-02-22 16:21:00,
2013-02-22 11:26:00,46.8,40.3,30.24,East,85,7.0,18.0,78,0.00,,,0.00,meteohub,2013-02-22 16:26:00,
2013-02-22 11:31:00,46.8,39.6,30.24,ENE,76,10.0,21.0,76,0.00,,,0.00,meteohub,2013-02-22 16:31:00,
2013-02-22 11:36:00,46.9,39.7,30.24,ESE,114,8.0,21.0,76,0.00,,,0.00,meteohub,2013-02-22 16:36:00,
2013-02-22 11:41:00,46.9,39.7,30.25,ENE,71,8.0,15.0,76,0.00,,,0.00,meteohub,2013-02-22 16:41:00,
2013-02-22 11:46:00,46.8,39.9,30.25,ENE,63,5.0,15.0,77,0.00,,,0.00,meteohub,2013-02-22 16:46:00,
2013-02-22 11:51:00,46.2,39.7,30.25,East,93,8.0,18.0,78,0.00,,,0.00,meteohub,2013-02-22 16:51:00,
2013-02-22 11:56:00,46.2,40.1,30.25,ENE,78,6.0,18.0,79,0.00,,,0.00,meteohub,2013-02-22 16:56:00,
2013-02-22 12:01:00,46.2,40.5,30.25,East,90,9.0,17.0,80,0.00,,,0.00,meteohub,2013-02-22 17:01:00,
2013-02-22 12:06:00,46.2,40.5,30.25,ESE,106,14.0,17.0,80,0.00,,,0.00,meteohub,2013-02-22 17:06:00,
2013-02-22 12:11:00,46.2,40.5,30.24,ENE,71,7.0,17.0,80,0.00,,,0.00,meteohub,2013-02-22 17:11:00,
2013-02-22 12:16:00,46.0,40.3,30.24,ENE,74,8.0,17.0,80,0.00,,,0.00,meteohub,2013-02-22 17:16:00,
2013-02-22 12:21:00,45.9,40.3,30.25,NE,40,8.0,17.0,81,0.00,,,0.00,meteohub,2013-02-22 17:21:00,
2013-02-22 12:26:00,45.5,40.1,30.24,East,89,7.0,17.0,81,0.00,,,0.00,meteohub,2013-02-22 17:26:00,
2013-02-22 12:31:00,45.5,40.1,30.24,East,83,3.0,17.0,81,0.00,,,0.00,meteohub,2013-02-22 17:31:00,
2013-02-22 12:36:00,45.7,40.1,30.24,ESE,105,2.0,17.0,81,0.00,,,0.00,meteohub,2013-02-22 17:36:00,
2013-02-22 12:41:00,45.7,40.1,30.23,ESE,116,11.0,14.0,81,0.00,,,0.00,meteohub,2013-02-22 17:41:00,
2013-02-22 12:46:00,45.7,40.5,30.22,East,79,6.0,14.0,82,0.00,,,0.00,meteohub,2013-02-22 17:46:00,
2013-02-22 12:51:00,45.9,40.6,30.22,East,81,5.0,14.0,82,0.00,,,0.00,meteohub,2013-02-22 17:51:00,
2013-02-22 12:56:00,45.7,40.5,30.22,ENE,78,7.0,14.0,82,0.00,,,0.00,meteohub,2013-02-22 17:56:00,
2013-02-22 13:01:00,45.7,40.5,30.22,ESE,107,7.0,18.0,82,0.00,,,0.00,meteohub,2013-02-22 18:01:00,
2013-02-22 13:06:00,45.7,40.5,30.22,ESE,115,9.0,18.0,82,0.00,,,0.00,meteohub,2013-02-22 18:06:00,
2013-02-22 13:11:00,45.3,40.1,30.21,NE,49,2.0,14.0,82,0.00,,,0.00,meteohub,2013-02-22 18:11:00,
2013-02-22 13:16:00,45.3,40.1,30.20,ENE,77,8.0,14.0,82,0.00,,,0.00,meteohub,2013-02-22 18:16:00,
2013-02-22 13:21:00,45.3,40.5,30.20,East,82,7.0,14.0,83,0.00,,,0.00,meteohub,2013-02-22 18:21:00,
2013-02-22 13:26:00,45.3,40.1,30.20,NE,44,3.0,14.0,82,0.00,,,0.00,meteohub,2013-02-22 18:26:00,
2013-02-22 13:31:00,45.5,40.1,30.20,ENE,76,5.0,13.0,81,0.00,,,0.00,meteohub,2013-02-22 18:31:00,
2013-02-22 13:36:00,45.7,40.1,30.20,NE,44,4.0,13.0,81,0.00,,,0.00,meteohub,2013-02-22 18:36:00,
2013-02-22 13:41:00,45.7,40.1,30.19,East,97,7.0,13.0,81,0.00,,,0.00,meteohub,2013-02-22 18:41:00,
2013-02-22 13:46:00,45.7,40.1,30.19,East,97,11.0,13.0,81,0.00,,,0.00,meteohub,2013-02-22 18:46:00,
2013-02-22 13:51:00,45.7,40.5,30.19,ENE,62,5.0,16.0,82,0.00,,,0.00,meteohub,2013-02-22 18:51:00,
2013-02-22 13:56:00,45.9,40.3,30.18,ENE,59,10.0,16.0,81,0.00,,,0.00,meteohub,2013-02-22 18:56:00,
2013-02-22 14:01:00,45.9,40.3,30.18,NE,36,4.0,13.0,81,0.00,,,0.00,meteohub,2013-02-22 19:01:00,
2013-02-22 14:06:00,45.9,40.3,30.18,East,87,8.0,13.0,81,0.00,,,0.00,meteohub,2013-02-22 19:06:00,
2013-02-22 14:11:00,46.0,40.8,30.18,East,79,4.0,13.0,82,0.00,,,0.00,meteohub,2013-02-22 19:11:00,
2013-02-22 14:16:00,46.0,40.8,30.18,NE,47,7.0,13.0,82,0.00,,,0.00,meteohub,2013-02-22 19:16:00,
2013-02-22 14:21:00,46.2,41.4,30.17,East,98,4.0,16.0,83,0.00,,,0.00,meteohub,2013-02-22 19:21:00,
2013-02-22 14:26:00,46.4,41.5,30.17,ESE,109,6.0,16.0,83,0.00,,,0.00,meteohub,2013-02-22 19:26:00,
2013-02-22 14:31:00,46.6,42.1,30.17,ESE,102,4.0,14.0,84,0.00,,,0.00,meteohub,2013-02-22 19:31:00,
2013-02-22 14:36:00,46.8,42.3,30.17,ENE,77,7.0,14.0,84,0.00,,,0.00,meteohub,2013-02-22 19:36:00,
2013-02-22 14:41:00,46.9,42.4,30.17,NNE,31,4.0,13.0,84,0.00,,,0.00,meteohub,2013-02-22 19:41:00,
2013-02-22 14:46:00,46.9,42.4,30.17,ESE,107,7.0,13.0,84,0.00,,,0.00,meteohub,2013-02-22 19:46:00,
2013-02-22 14:51:00,46.9,42.6,30.17,NE,51,3.0,14.0,85,0.00,,,0.00,meteohub,2013-02-22 19:51:00,
2013-02-22 14:56:00,46.9,42.6,30.16,East,86,8.0,14.0,85,0.00,,,0.00,meteohub,2013-02-22 19:56:00,
2013-02-22 15:01:00,47.1,42.8,30.16,ENE,77,5.0,14.0,85,0.00,,,0.00,meteohub,2013-02-22 20:01:00,
2013-02-22 15:06:00,47.3,43.3,30.16,NNE,31,4.0,14.0,86,0.00,,,0.00,meteohub,2013-02-22 20:06:00,
2013-02-22 15:11:00,47.5,43.5,30.15,East,90,9.0,14.0,86,0.00,,,0.00,meteohub,2013-02-22 20:11:00,
2013-02-22 15:16:00,47.5,43.5,30.15,NE,45,8.0,14.0,86,0.00,,,0.00,meteohub,2013-02-22 20:16:00,
2013-02-22 15:21:00,47.5,43.5,30.15,East,99,7.0,13.0,86,0.00,,,0.00,meteohub,2013-02-22 20:21:00,
2013-02-22 15:26:00,47.7,43.7,30.15,East,85,5.0,13.0,86,0.00,,,0.00,meteohub,2013-02-22 20:26:00,
2013-02-22 15:31:00,47.7,43.7,30.15,ENE,61,3.0,13.0,86,0.00,,,0.00,meteohub,2013-02-22 20:31:00,
2013-02-22 15:36:00,47.8,43.9,30.15,ENE,70,4.0,13.0,86,0.00,,,0.00,meteohub,2013-02-22 20:36:00,
2013-02-22 15:41:00,48.0,44.1,30.16,East,96,4.0,12.0,86,0.00,,,0.00,meteohub,2013-02-22 20:41:00,
2013-02-22 15:46:00,48.4,44.4,30.15,East,97,6.0,12.0,86,0.00,,,0.00,meteohub,2013-02-22 20:46:00,
2013-02-22 15:51:00,48.4,44.8,30.15,East,96,7.0,11.0,87,0.00,,,0.00,meteohub,2013-02-22 20:51:00,
2013-02-22 15:56:00,48.4,44.8,30.15,ESE,105,5.0,11.0,87,0.00,,,0.00,meteohub,2013-02-22 20:56:00,
2013-02-22 16:01:00,48.6,44.8,30.15,East,82,4.0,16.0,87,0.00,,,0.00,meteohub,2013-02-22 21:01:00,
2013-02-22 16:06:00,48.4,44.8,30.15,East,96,5.0,16.0,87,0.00,,,0.00,meteohub,2013-02-22 21:06:00,
2013-02-22 16:11:00,48.4,44.8,30.15,East,90,4.0,16.0,87,0.00,,,0.00,meteohub,2013-02-22 21:11:00,
2013-02-22 16:16:00,48.4,44.8,30.15,ENE,61,0.0,16.0,87,0.00,,,0.00,meteohub,2013-02-22 21:16:00,
2013-02-22 16:21:00,48.4,44.8,30.14,ENE,76,11.0,15.0,87,0.00,,,0.00,meteohub,2013-02-22 21:21:00,
2013-02-22 16:26:00,48.4,44.8,30.15,ENE,78,5.0,15.0,87,0.00,,,0.00,meteohub,2013-02-22 21:26:00,
2013-02-22 16:31:00,48.2,44.6,30.14,East,91,0.0,14.0,87,0.00,,,0.00,meteohub,2013-02-22 21:31:00,
2013-02-22 16:36:00,48.2,44.6,30.14,East,88,5.0,14.0,87,0.00,,,0.00,meteohub,2013-02-22 21:36:00,
2013-02-22 16:41:00,48.2,44.6,30.14,ESE,105,4.0,11.0,87,0.00,,,0.00,meteohub,2013-02-22 21:41:00,
2013-02-22 16:46:00,48.2,44.6,30.14,ENE,76,7.0,11.0,87,0.00,,,0.00,meteohub,2013-02-22 21:46:00,
2013-02-22 16:51:00,48.4,44.8,30.14,ENE,76,0.0,12.0,87,0.00,,,0.00,meteohub,2013-02-22 21:51:00,
2013-02-22 16:56:00,48.4,44.8,30.14,ESE,111,1.0,12.0,87,0.00,,,0.00,meteohub,2013-02-22 21:56:00,
2013-02-22 17:01:00,48.4,45.0,30.14,East,86,3.0,12.0,88,0.00,,,0.00,meteohub,2013-02-22 22:01:00,
2013-02-22 17:06:00,48.6,45.1,30.14,ENE,70,4.0,12.0,88,0.00,,,0.00,meteohub,2013-02-22 22:06:00,
2013-02-22 17:11:00,48.6,45.1,30.13,East,86,5.0,15.0,88,0.00,,,0.00,meteohub,2013-02-22 22:11:00,
2013-02-22 17:16:00,48.7,45.3,30.13,ENE,72,8.0,15.0,88,0.00,,,0.00,meteohub,2013-02-22 22:16:00,
2013-02-22 17:21:00,48.7,45.3,30.14,ENE,67,4.0,11.0,88,0.00,,,0.00,meteohub,2013-02-22 22:21:00,
2013-02-22 17:26:00,48.7,45.3,30.14,East,94,5.0,11.0,88,0.00,,,0.00,meteohub,2013-02-22 22:26:00,
2013-02-22 17:31:00,48.7,45.3,30.13,ENE,74,4.0,10.0,88,0.00,,,0.00,meteohub,2013-02-22 22:31:00,
2013-02-22 17:36:00,48.7,45.3,30.14,ENE,68,4.0,10.0,88,0.00,,,0.00,meteohub,2013-02-22 22:36:00,
2013-02-22 17:41:00,48.7,45.3,30.14,East,93,6.0,10.0,88,0.00,,,0.00,meteohub,2013-02-22 22:41:00,
2013-02-22 17:46:00,48.7,45.3,30.15,East,84,0.0,10.0,88,0.00,,,0.00,meteohub,2013-02-22 22:46:00,
2013-02-22 17:51:00,48.9,45.5,30.15,ENE,60,3.0,13.0,88,0.00,,,0.00,meteohub,2013-02-22 22:51:00,
2013-02-22 17:56:00,48.9,45.5,30.14,East,97,5.0,13.0,88,0.00,,,0.00,meteohub,2013-02-22 22:56:00,
2013-02-22 18:01:00,48.9,45.5,30.14,ENE,67,3.0,11.0,88,0.00,,,0.00,meteohub,2013-02-22 23:01:00,
2013-02-22 18:06:00,48.9,45.5,30.14,ENE,74,5.0,11.0,88,0.00,,,0.00,meteohub,2013-02-22 23:06:00,
2013-02-22 18:11:00,48.9,45.5,30.14,East,83,5.0,11.0,88,0.00,,,0.00,meteohub,2013-02-22 23:11:00,
2013-02-22 18:16:00,48.9,45.5,30.13,East,96,1.0,11.0,88,0.00,,,0.00,meteohub,2013-02-22 23:16:00,
2013-02-22 18:22:00,48.7,45.3,30.14,NE,49,7.0,11.0,88,0.00,,,0.00,meteohub,2013-02-22 23:22:00,
2013-02-22 18:27:00,48.7,45.0,30.14,East,86,4.0,11.0,87,0.00,,,0.00,meteohub,2013-02-22 23:27:00,
2013-02-22 18:32:00,48.6,44.8,30.14,ENE,64,5.0,11.0,87,0.00,,,0.00,meteohub,2013-02-22 23:32:00,
2013-02-22 18:37:00,48.6,44.8,30.13,ENE,69,3.0,11.0,87,0.00,,,0.00,meteohub,2013-02-22 23:37:00,
2013-02-22 18:42:00,48.4,44.8,30.14,NE,51,0.0,14.0,87,0.00,,,0.00,meteohub,2013-02-22 23:42:00,
2013-02-22 18:47:00,48.4,44.8,30.14,ENE,59,3.0,14.0,87,0.00,,,0.00,meteohub,2013-02-22 23:47:00,
2013-02-22 18:52:00,48.4,44.8,30.14,ENE,69,3.0,14.0,87,0.00,,,0.00,meteohub,2013-02-22 23:52:00,
2013-02-22 18:57:00,48.2,44.6,30.14,ENE,67,7.0,14.0,87,0.00,,,0.00,meteohub,2013-02-22 23:57:00,
2013-02-22 19:02:00,48.0,44.6,30.14,East,92,5.0,9.0,88,0.00,,,0.00,meteohub,2013-02-23 00:02:00,
2013-02-22 19:07:00,47.8,44.2,30.13,ESE,113,5.0,9.0,87,0.00,,,0.00,meteohub,2013-02-23 00:07:00,
2013-02-22 19:12:00,47.8,44.2,30.13,East,89,3.0,10.0,87,0.00,,,0.00,meteohub,2013-02-23 00:12:00,
2013-02-22 19:17:00,47.7,44.2,30.14,East,89,5.0,10.0,88,0.00,,,0.00,meteohub,2013-02-23 00:17:00,
2013-02-22 19:22:00,47.5,44.4,30.13,NE,39,2.0,9.0,89,0.00,,,0.00,meteohub,2013-02-23 00:22:00,
2013-02-22 19:27:00,47.1,44.4,30.13,ESE,122,0.0,9.0,90,0.00,,,0.00,meteohub,2013-02-23 00:27:00,
2013-02-22 19:32:00,47.1,44.4,30.14,ENE,65,0.0,9.0,90,0.00,,,0.00,meteohub,2013-02-23 00:32:00,
2013-02-22 19:37:00,46.9,44.2,30.14,ENE,65,0.0,9.0,90,0.00,,,0.00,meteohub,2013-02-23 00:37:00,
2013-02-22 19:42:00,46.9,44.4,30.14,NE,44,0.0,8.0,91,0.00,,,0.00,meteohub,2013-02-23 00:42:00,
2013-02-22 19:47:00,46.8,44.2,30.14,ESE,109,0.0,8.0,91,0.00,,,0.00,meteohub,2013-02-23 00:47:00,
2013-02-22 19:52:00,46.8,44.2,30.14,ENE,68,0.0,4.0,91,0.00,,,0.00,meteohub,2013-02-23 00:52:00,
2013-02-22 19:57:00,46.6,44.4,30.13,ESE,105,0.0,4.0,92,0.00,,,0.00,meteohub,2013-02-23 00:57:00,
2013-02-22 20:02:00,46.4,44.2,30.13,ENE,65,0.0,4.0,92,0.00,,,0.00,meteohub,2013-02-23 01:02:00,
2013-02-22 20:07:00,46.2,44.2,30.14,NE,48,0.0,4.0,93,0.00,,,0.00,meteohub,2013-02-23 01:07:00,
2013-02-22 20:12:00,46.2,44.2,30.14,ENE,69,0.0,4.0,93,0.00,,,0.00,meteohub,2013-02-23 01:12:00,
2013-02-22 20:17:00,46.2,44.2,30.14,East,83,0.0,5.0,93,0.00,,,0.00,meteohub,2013-02-23 01:17:00,
2013-02-22 20:22:00,46.2,44.2,30.14,East,83,0.0,5.0,93,0.00,,,0.00,meteohub,2013-02-23 01:22:00,
2013-02-22 20:27:00,46.2,44.2,30.14,East,101,0.0,5.0,93,0.00,,,0.00,meteohub,2013-02-23 01:27:00,
2013-02-22 20:32:00,46.0,44.4,30.14,ENE,74,0.0,4.0,94,0.00,,,0.00,meteohub,2013-02-23 01:32:00,
2013-02-22 20:37:00,46.2,44.6,30.14,ENE,74,0.0,4.0,94,0.00,,,0.00,meteohub,2013-02-23 01:37:00,
2013-02-22 20:42:00,46.0,44.4,30.14,ENE,74,0.0,4.0,94,0.00,,,0.00,meteohub,2013-02-23 01:42:00,
2013-02-22 20:47:00,46.0,44.4,30.13,ENE,74,0.0,4.0,94,0.00,,,0.00,meteohub,2013-02-23 01:47:00,
2013-02-22 20:52:00,46.0,44.4,30.14,ENE,74,0.0,0.0,94,0.00,,,0.00,meteohub,2013-02-23 01:52:00,
2013-02-22 20:57:00,46.0,44.4,30.14,ENE,74,0.0,0.0,94,0.00,,,0.00,meteohub,2013-02-23 01:57:00,
2013-02-22 21:02:00,46.0,44.4,30.14,ENE,73,0.0,0.0,94,0.00,,,0.00,meteohub,2013-02-23 02:02:00,
2013-02-22 21:07:00,46.0,44.6,30.14,ENE,74,0.0,0.0,95,0.00,,,0.00,meteohub,2013-02-23 02:07:00,
2013-02-22 21:12:00,45.9,44.4,30.14,ENE,73,0.0,0.0,95,0.00,,,0.00,meteohub,2013-02-23 02:12:00,
2013-02-22 21:17:00,45.9,44.4,30.13,ENE,74,0.0,0.0,95,0.00,,,0.00,meteohub,2013-02-23 02:17:00,
2013-02-22 21:22:00,45.9,44.4,30.12,NE,49,0.0,0.0,95,0.00,,,0.00,meteohub,2013-02-23 02:22:00,
2013-02-22 21:27:00,45.9,44.4,30.12,ENE,75,3.0,0.0,95,0.00,,,0.00,meteohub,2013-02-23 02:27:00,
2013-02-22 21:32:00,45.9,44.4,30.11,ENE,70,0.0,5.0,95,0.00,,,0.00,meteohub,2013-02-23 02:32:00,
2013-02-22 21:37:00,45.9,44.4,30.10,ENE,71,0.0,5.0,95,0.00,,,0.00,meteohub,2013-02-23 02:37:00,
2013-02-22 21:42:00,46.0,44.6,30.10,ENE,59,3.0,5.0,95,0.00,,,0.00,meteohub,2013-02-23 02:42:00,
2013-02-22 21:47:00,46.2,44.8,30.10,ENE,67,1.0,5.0,95,0.00,,,0.00,meteohub,2013-02-23 02:47:00,
2013-02-22 21:52:00,46.6,45.1,30.10,East,83,0.0,6.0,95,0.00,,,0.00,meteohub,2013-02-23 02:52:00,
2013-02-22 21:57:00,46.6,45.1,30.11,NE,56,1.0,6.0,95,0.00,,,0.00,meteohub,2013-02-23 02:57:00,
2013-02-22 22:02:00,46.8,45.3,30.11,East,90,0.0,6.0,95,0.00,,,0.00,meteohub,2013-02-23 03:02:00,
2013-02-22 22:07:00,46.8,45.3,30.11,ESE,107,0.0,6.0,95,0.00,,,0.00,meteohub,2013-02-23 03:07:00,
2013-02-22 22:12:00,46.9,45.5,30.10,ENE,65,3.0,6.0,95,0.00,,,0.00,meteohub,2013-02-23 03:12:00,
2013-02-22 22:17:00,47.1,45.7,30.09,East,87,0.0,7.0,95,0.00,,,0.00,meteohub,2013-02-23 03:17:00,
2013-02-22 22:22:00,47.1,45.7,30.09,East,97,0.0,7.0,95,0.00,,,0.00,meteohub,2013-02-23 03:22:00,
2013-02-22 22:27:00,47.5,46.0,30.09,ENE,74,0.0,7.0,95,0.00,,,0.00,meteohub,2013-02-23 03:27:00,
2013-02-22 22:32:00,47.7,46.2,30.09,ENE,75,2.0,7.0,95,0.00,,,0.00,meteohub,2013-02-23 03:32:00,
2013-02-22 22:37:00,47.8,46.8,30.09,East,83,0.0,7.0,96,0.00,,,0.00,meteohub,2013-02-23 03:37:00,
2013-02-22 22:42:00,48.0,46.9,30.09,NNE,31,0.0,7.0,96,0.00,,,0.00,meteohub,2013-02-23 03:42:00,
2013-02-22 22:47:00,48.2,47.1,30.08,NE,49,3.0,7.0,96,0.00,,,0.00,meteohub,2013-02-23 03:47:00,
2013-02-22 22:52:00,48.4,47.3,30.09,NE,44,0.0,6.0,96,0.00,,,0.00,meteohub,2013-02-23 03:52:00,
2013-02-22 22:57:00,48.6,47.5,30.08,ESE,109,4.0,6.0,96,0.00,,,0.00,meteohub,2013-02-23 03:57:00,
2013-02-22 23:02:00,48.7,47.7,30.08,ENE,78,1.0,5.0,96,0.00,,,0.00,meteohub,2013-02-23 04:02:00,
2013-02-22 23:07:00,49.1,48.0,30.08,ENE,63,0.0,5.0,96,0.00,,,0.00,meteohub,2013-02-23 04:07:00,
2013-02-22 23:12:00,49.3,48.2,30.07,East,80,0.0,5.0,96,0.00,,,0.00,meteohub,2013-02-23 04:12:00,
2013-02-22 23:17:00,49.5,48.4,30.07,NE,44,0.0,6.0,96,0.00,,,0.00,meteohub,2013-02-23 04:17:00,
2013-02-22 23:22:00,49.6,48.6,30.06,ENE,68,0.0,6.0,96,0.00,,,0.00,meteohub,2013-02-23 04:22:00,
2013-02-22 23:27:00,50.0,48.9,30.05,ENE,71,2.0,6.0,96,0.00,,,0.00,meteohub,2013-02-23 04:27:00,
2013-02-22 23:32:00,50.4,49.3,30.05,ESE,104,0.0,4.0,96,0.00,,,0.00,meteohub,2013-02-23 04:32:00,
2013-02-22 23:37:00,50.7,49.8,30.05,ENE,68,1.0,4.0,97,0.00,,,0.00,meteohub,2013-02-23 04:37:00,
2013-02-22 23:42:00,51.1,50.2,30.04,NE,54,0.0,6.0,97,0.00,,,0.00,meteohub,2013-02-23 04:42:00,
2013-02-22 23:47:00,51.3,50.4,30.05,NW,313,0.0,6.0,97,0.00,,,0.00,meteohub,2013-02-23 04:47:00,
2013-02-22 23:52:00,51.4,50.5,30.04,ESE,111,0.0,6.0,97,0.00,,,0.14,meteohub,2013-02-23 04:52:00,
2013-02-22 23:57:00,52.0,51.1,30.03,ENE,60,0.0,0.0,97,0.19,,,0.14,meteohub,2013-02-23 04:57:00,